createdAt,value
2022-12-08T00:02:20.909Z,37.36
2022-12-08T00:05:06.739Z,37.02
2022-12-08T00:07:52.551Z,36.51
2022-12-08T00:10:48.040Z,36.20
2022-12-08T00:13:06.018Z,36.17
2022-12-08T00:15:32.889Z,36.00
2022-12-08T00:17:59.652Z,35.83
2022-12-08T00:20:26.410Z,35.85
2022-12-08T00:22:53.196Z,35.92
2022-12-08T00:25:20.050Z,35.47
2022-12-08T00:27:46.823Z,35.50
2022-12-08T00:30:13.568Z,35.28
2022-12-08T00:32:40.508Z,35.62
2022-12-08T00:35:07.294Z,37.60
2022-12-08T00:37:34.153Z,39.28
2022-12-08T00:40:01.016Z,42.50
2022-12-08T00:42:27.936Z,39.03
2022-12-08T00:44:54.692Z,37.98
2022-12-08T00:47:24.868Z,37.14
2022-12-08T00:49:51.966Z,36.71
2022-12-08T00:52:18.718Z,36.47
2022-12-08T00:54:45.475Z,36.16
2022-12-08T00:57:12.264Z,36.09
2022-12-08T00:59:39.093Z,36.02
2022-12-08T01:02:05.861Z,35.77
2022-12-08T01:04:32.644Z,35.72
2022-12-08T01:06:59.467Z,35.55
2022-12-08T01:09:26.275Z,35.50
2022-12-08T01:11:53.048Z,35.42
2022-12-08T01:14:19.799Z,35.64
2022-12-08T01:16:46.544Z,35.88
2022-12-08T01:19:13.346Z,38.26
2022-12-08T01:21:40.100Z,39.56
2022-12-08T01:24:07.150Z,40.47
2022-12-08T01:26:34.021Z,38.42
2022-12-08T01:29:00.799Z,37.38
2022-12-08T01:31:27.593Z,36.90
2022-12-08T01:33:54.427Z,36.50
2022-12-08T01:36:21.236Z,36.38
2022-12-08T01:38:48.138Z,36.17
2022-12-08T01:41:14.886Z,35.87
2022-12-08T01:43:41.675Z,35.88
2022-12-08T01:46:08.509Z,35.82
2022-12-08T01:48:35.428Z,35.76
2022-12-08T01:51:02.301Z,35.57
2022-12-08T01:53:29.089Z,35.59
2022-12-08T01:55:55.841Z,35.30
2022-12-08T01:58:22.844Z,35.29
2022-12-08T02:00:49.566Z,35.29
2022-12-08T02:03:16.293Z,37.22
2022-12-08T02:05:43.075Z,39.22
2022-12-08T02:08:10.063Z,42.70
2022-12-08T02:10:36.908Z,38.24
2022-12-08T02:13:03.654Z,37.67
2022-12-08T02:15:30.405Z,37.13
2022-12-08T02:17:57.222Z,36.74
2022-12-08T02:20:24.109Z,36.38
2022-12-08T02:22:50.839Z,36.10
2022-12-08T02:25:17.748Z,36.03
2022-12-08T02:27:44.696Z,36.02
2022-12-08T02:30:11.476Z,35.56
2022-12-08T02:32:38.248Z,35.47
2022-12-08T02:35:04.990Z,35.41
2022-12-08T02:37:31.744Z,35.36
2022-12-08T02:39:58.480Z,35.38
2022-12-08T02:42:25.323Z,35.24
2022-12-08T02:44:52.112Z,35.44
2022-12-08T02:47:19.088Z,35.06
2022-12-08T02:49:45.837Z,37.98
2022-12-08T02:52:12.641Z,38.44
2022-12-08T02:54:39.382Z,42.18
2022-12-08T02:57:06.202Z,38.87
2022-12-08T02:59:33.911Z,37.80
2022-12-08T03:02:00.685Z,37.00
2022-12-08T03:04:27.637Z,36.69
2022-12-08T03:06:54.492Z,36.32
2022-12-08T03:09:21.236Z,36.18
2022-12-08T03:11:48.687Z,35.86
2022-12-08T03:14:15.650Z,35.65
2022-12-08T03:16:42.372Z,35.78
2022-12-08T03:19:09.439Z,35.64
2022-12-08T03:21:36.249Z,35.48
2022-12-08T03:24:03.225Z,35.65
2022-12-08T03:26:30.001Z,35.39
2022-12-08T03:28:56.723Z,35.33
2022-12-08T03:31:23.716Z,35.20
2022-12-08T03:33:50.962Z,36.67
2022-12-08T03:36:17.744Z,37.81
2022-12-08T03:38:44.568Z,41.25
2022-12-08T03:41:20.762Z,40.02
2022-12-08T03:43:47.714Z,38.06
2022-12-08T03:46:14.656Z,37.08
2022-12-08T03:48:42.614Z,36.74
2022-12-08T03:51:09.370Z,36.36
2022-12-08T03:53:36.120Z,36.06
2022-12-08T03:56:02.860Z,35.79
2022-12-08T03:58:34.292Z,35.84
2022-12-08T04:01:03.871Z,35.79
2022-12-08T04:03:30.623Z,35.49
2022-12-08T04:05:57.385Z,35.44
2022-12-08T04:08:24.157Z,35.36
2022-12-08T04:10:50.938Z,35.54
2022-12-08T04:13:17.676Z,35.17
2022-12-08T04:15:44.446Z,35.13
2022-12-08T04:18:11.201Z,35.47
2022-12-08T04:20:37.934Z,37.15
2022-12-08T04:23:04.678Z,37.99
2022-12-08T04:25:31.723Z,41.84
2022-12-08T04:27:58.465Z,39.37
2022-12-08T04:30:25.211Z,37.93
2022-12-08T04:32:51.944Z,37.39
2022-12-08T04:35:18.716Z,36.81
2022-12-08T04:37:45.461Z,36.44
2022-12-08T04:40:12.389Z,36.40
2022-12-08T04:42:39.113Z,35.79
2022-12-08T04:45:05.869Z,35.91
2022-12-08T04:47:32.809Z,35.86
2022-12-08T04:49:59.539Z,35.86
2022-12-08T04:52:26.306Z,35.49
2022-12-08T04:54:53.039Z,35.49
2022-12-08T04:57:19.800Z,35.39
2022-12-08T04:59:46.546Z,35.24
2022-12-08T05:02:13.613Z,35.21
2022-12-08T05:04:40.447Z,35.09
2022-12-08T05:07:07.204Z,34.98
2022-12-08T05:09:34.224Z,37.30
2022-12-08T05:12:00.960Z,38.85
2022-12-08T05:14:27.826Z,41.05
2022-12-08T05:16:54.569Z,38.38
2022-12-08T05:19:21.329Z,37.50
2022-12-08T05:21:48.095Z,36.79
2022-12-08T05:24:14.812Z,36.59
2022-12-08T05:26:41.545Z,36.10
2022-12-08T05:29:08.283Z,36.21
2022-12-08T05:31:35.147Z,35.75
2022-12-08T05:34:03.302Z,35.55
2022-12-08T05:36:30.412Z,35.87
2022-12-08T05:38:57.529Z,35.31
2022-12-08T05:41:24.259Z,35.30
2022-12-08T05:43:51.052Z,35.23
2022-12-08T05:46:17.838Z,35.27
2022-12-08T05:48:44.661Z,35.17
2022-12-08T05:51:11.429Z,37.31
2022-12-08T05:53:38.153Z,38.73
2022-12-08T05:56:04.886Z,42.16
2022-12-08T05:58:31.651Z,38.57
2022-12-08T06:00:58.384Z,37.53
2022-12-08T06:03:25.263Z,36.87
2022-12-08T06:05:52.139Z,36.48
2022-12-08T06:08:19.021Z,36.18
2022-12-08T06:10:46.017Z,35.86
2022-12-08T06:13:13.063Z,36.05
2022-12-08T06:15:39.802Z,35.72
2022-12-08T06:18:06.682Z,35.53
2022-12-08T06:20:33.477Z,35.29
2022-12-08T06:23:00.286Z,35.32
2022-12-08T06:25:27.005Z,35.21
2022-12-08T06:27:53.786Z,35.15
2022-12-08T06:30:20.509Z,34.98
2022-12-08T06:32:47.305Z,34.95
2022-12-08T06:35:14.083Z,37.78
2022-12-08T06:37:40.813Z,39.46
2022-12-08T06:40:07.741Z,41.27
2022-12-08T06:42:43.519Z,38.33
2022-12-08T06:45:10.249Z,37.14
2022-12-08T06:47:37.091Z,36.76
2022-12-08T06:50:04.238Z,36.07
2022-12-08T06:52:31.193Z,35.92
2022-12-08T06:54:58.014Z,35.97
2022-12-08T06:57:25.598Z,35.76
2022-12-08T06:59:52.330Z,35.63
2022-12-08T07:02:19.336Z,35.32
2022-12-08T07:04:46.181Z,35.36
2022-12-08T07:07:13.039Z,35.29
2022-12-08T07:09:39.821Z,35.33
2022-12-08T07:12:06.661Z,35.16
2022-12-08T07:14:33.525Z,35.23
2022-12-08T07:17:00.510Z,34.89
2022-12-08T07:19:27.319Z,37.50
2022-12-08T07:21:54.087Z,39.33
2022-12-08T07:24:20.849Z,40.82
2022-12-08T07:26:47.600Z,38.25
2022-12-08T07:29:14.330Z,36.94
2022-12-08T07:31:41.055Z,36.76
2022-12-08T07:34:07.821Z,36.44
2022-12-08T07:36:34.610Z,36.15
2022-12-08T07:39:01.446Z,35.95
2022-12-08T07:41:28.382Z,35.59
2022-12-08T07:43:55.165Z,35.63
2022-12-08T07:46:22.030Z,35.41
2022-12-08T07:48:49.068Z,35.32
2022-12-08T07:51:15.851Z,35.49
2022-12-08T07:53:43.888Z,35.33
2022-12-08T07:56:12.105Z,35.05
2022-12-08T07:58:38.945Z,35.96
2022-12-08T08:01:05.858Z,38.65
2022-12-08T08:03:32.875Z,40.69
2022-12-08T08:05:59.632Z,39.32
2022-12-08T08:08:26.428Z,37.76
2022-12-08T08:10:53.227Z,37.05
2022-12-08T08:13:20.033Z,36.65
2022-12-08T08:15:46.880Z,36.14
2022-12-08T08:18:13.736Z,35.91
2022-12-08T08:20:40.457Z,35.79
2022-12-08T08:23:07.222Z,35.74
2022-12-08T08:25:33.990Z,35.78
2022-12-08T08:28:00.826Z,35.42
2022-12-08T08:30:27.561Z,35.32
2022-12-08T08:32:54.460Z,35.29
2022-12-08T08:35:21.209Z,35.34
2022-12-08T08:37:49.427Z,35.30
2022-12-08T08:40:16.416Z,37.68
2022-12-08T08:42:43.148Z,40.29
2022-12-08T08:45:09.880Z,39.97
2022-12-08T08:47:36.618Z,37.92
2022-12-08T08:50:03.913Z,37.16
2022-12-08T08:52:31.043Z,36.54
2022-12-08T08:54:57.821Z,36.24
2022-12-08T08:57:25.986Z,35.94
2022-12-08T08:59:53.115Z,35.98
2022-12-08T09:02:19.954Z,35.75
2022-12-08T09:04:46.933Z,35.72
2022-12-08T09:07:13.784Z,35.53
2022-12-08T09:09:40.543Z,35.44
2022-12-08T09:12:07.448Z,35.33
2022-12-08T09:14:34.207Z,35.52
2022-12-08T09:17:00.949Z,38.53
2022-12-08T09:19:27.759Z,41.55
2022-12-08T09:21:54.492Z,38.99
2022-12-08T09:24:21.236Z,37.44
2022-12-08T09:26:48.215Z,37.02
2022-12-08T09:29:15.150Z,36.39
2022-12-08T09:31:42.195Z,36.04
2022-12-08T09:34:09.100Z,35.82
2022-12-08T09:36:35.844Z,36.04
2022-12-08T09:39:02.615Z,35.89
2022-12-08T09:41:36.553Z,35.66
2022-12-08T09:44:05.911Z,35.77
2022-12-08T09:46:32.752Z,35.34
2022-12-08T09:48:59.567Z,36.01
2022-12-08T09:51:26.323Z,38.04
2022-12-08T09:53:53.185Z,39.41
2022-12-08T09:56:20.024Z,41.05
2022-12-08T09:58:47.506Z,38.67
2022-12-08T10:01:14.276Z,37.39
2022-12-08T10:03:41.009Z,37.01
2022-12-08T10:06:07.787Z,36.75
2022-12-08T10:08:34.624Z,36.35
2022-12-08T10:11:01.389Z,36.10
2022-12-08T10:13:28.145Z,36.01
2022-12-08T10:15:54.908Z,35.73
2022-12-08T10:18:21.693Z,35.80
2022-12-08T10:20:48.459Z,35.76
2022-12-08T10:23:15.303Z,35.61
2022-12-08T10:25:42.180Z,35.52
2022-12-08T10:28:08.931Z,35.28
2022-12-08T10:30:35.781Z,37.96
2022-12-08T10:33:02.567Z,38.29
2022-12-08T10:35:29.342Z,42.52
2022-12-08T10:37:57.108Z,38.95
2022-12-08T10:40:23.945Z,37.64
2022-12-08T10:42:50.689Z,36.99
2022-12-08T10:45:17.424Z,36.72
2022-12-08T10:47:45.447Z,36.67
2022-12-08T10:50:13.300Z,36.49
2022-12-08T10:52:40.105Z,36.31
2022-12-08T10:55:06.881Z,36.10
2022-12-08T10:57:33.620Z,36.09
2022-12-08T11:00:00.419Z,35.93
2022-12-08T11:02:27.312Z,35.67
2022-12-08T11:04:54.145Z,35.59
2022-12-08T11:07:20.872Z,36.17
2022-12-08T11:09:48.821Z,37.89
2022-12-08T11:12:15.728Z,38.87
2022-12-08T11:14:42.488Z,41.43
2022-12-08T11:17:09.240Z,38.96
2022-12-08T11:19:35.984Z,37.54
2022-12-08T11:22:03.777Z,37.04
2022-12-08T11:24:36.070Z,36.67
2022-12-08T11:27:04.205Z,36.42
2022-12-08T11:29:30.954Z,36.53
2022-12-08T11:31:57.827Z,36.13
2022-12-08T11:34:24.682Z,36.27
2022-12-08T11:36:51.443Z,36.03
2022-12-08T11:39:18.222Z,36.07
2022-12-08T11:41:45.753Z,35.92
2022-12-08T11:44:12.493Z,35.69
2022-12-08T11:46:39.520Z,35.45
2022-12-08T11:49:07.249Z,37.55
2022-12-08T11:51:34.089Z,37.77
2022-12-08T11:54:00.856Z,41.74
2022-12-08T11:56:27.637Z,40.43
2022-12-08T11:58:54.419Z,38.28
2022-12-08T12:01:21.239Z,37.70
2022-12-08T12:03:48.091Z,36.96
2022-12-08T12:06:53.698Z,36.71
2022-12-08T12:09:01.669Z,36.69
2022-12-08T12:11:47.201Z,36.23
2022-12-08T12:14:13.971Z,36.12
2022-12-08T12:16:40.775Z,36.28
2022-12-08T12:19:07.563Z,36.05
2022-12-08T12:21:34.308Z,35.76
2022-12-08T12:24:01.059Z,35.79
2022-12-08T12:26:27.797Z,35.70
2022-12-08T12:28:54.736Z,38.04
2022-12-08T12:31:21.517Z,38.78
2022-12-08T12:33:48.335Z,42.77
2022-12-08T12:36:15.134Z,39.39
2022-12-08T12:39:00.652Z,38.05
2022-12-08T12:41:27.437Z,37.44
2022-12-08T12:43:54.196Z,36.96
2022-12-08T12:46:20.983Z,36.93
2022-12-08T12:48:47.788Z,36.52
2022-12-08T12:51:14.520Z,36.33
2022-12-08T12:53:41.250Z,36.28
2022-12-08T12:56:09.944Z,36.36
2022-12-08T12:58:36.762Z,36.14
2022-12-08T13:01:03.557Z,35.98
2022-12-08T13:03:30.325Z,35.93
2022-12-08T13:05:57.061Z,35.95
2022-12-08T13:08:23.920Z,36.16
2022-12-08T13:10:50.813Z,38.07
2022-12-08T13:13:17.777Z,37.96
2022-12-08T13:15:44.708Z,41.75
2022-12-08T13:18:11.477Z,39.35
2022-12-08T13:20:38.203Z,38.10
2022-12-08T13:23:04.988Z,37.61
2022-12-08T13:25:36.658Z,37.03
2022-12-08T13:28:03.768Z,36.67
2022-12-08T13:30:30.534Z,36.80
2022-12-08T13:35:44.100Z,36.37
2022-12-08T13:38:10.879Z,36.12
2022-12-08T13:40:37.651Z,35.94
2022-12-08T13:43:04.399Z,36.04
2022-12-08T13:46:20.121Z,36.09
2022-12-08T13:48:35.115Z,35.89
2022-12-08T13:59:28.100Z,38.49
2022-12-08T14:01:54.994Z,37.64
2022-12-08T14:04:47.484Z,37.26
2022-12-08T14:07:08.884Z,36.83
2022-12-08T14:09:35.706Z,36.73
2022-12-08T14:12:03.325Z,36.51
2022-12-08T14:15:00.579Z,36.26
2022-12-08T14:17:17.210Z,36.14
2022-12-08T14:19:44.015Z,36.06
2022-12-08T14:22:11.969Z,36.32
2022-12-08T14:24:38.691Z,35.77
2022-12-08T14:27:05.437Z,36.96
2022-12-08T14:29:32.250Z,38.43
2022-12-08T14:31:59.068Z,39.45
2022-12-08T14:34:25.853Z,41.16
2022-12-08T14:36:52.765Z,38.93
2022-12-08T14:39:19.492Z,38.02
2022-12-08T14:41:46.236Z,37.52
2022-12-08T14:44:12.989Z,37.08
2022-12-08T14:46:40.050Z,37.13
2022-12-08T14:49:07.041Z,36.63
2022-12-08T14:51:33.782Z,36.58
2022-12-08T14:54:00.557Z,36.41
2022-12-08T14:56:27.445Z,36.44
2022-12-08T14:58:54.183Z,36.12
2022-12-08T15:01:20.978Z,36.08
2022-12-08T15:03:51.237Z,35.76
2022-12-08T15:06:18.329Z,36.11
2022-12-08T15:08:45.068Z,37.81
2022-12-08T15:11:11.822Z,38.36
2022-12-08T15:13:38.668Z,41.05
2022-12-08T15:16:06.289Z,40.26
2022-12-08T15:18:33.395Z,38.70
2022-12-08T15:21:00.274Z,37.68
2022-12-08T15:23:27.096Z,36.99
2022-12-08T15:25:53.858Z,36.77
2022-12-08T15:28:22.070Z,36.79
2022-12-08T15:30:50.821Z,36.44
2022-12-08T15:33:17.606Z,36.74
2022-12-08T15:35:44.391Z,36.34
2022-12-08T15:38:11.177Z,36.19
2022-12-08T15:40:37.961Z,36.10
2022-12-08T15:43:04.830Z,36.11
2022-12-08T15:45:31.755Z,35.77
2022-12-08T15:47:58.928Z,36.77
2022-12-08T15:50:25.772Z,38.23
2022-12-08T15:52:52.598Z,38.25
2022-12-08T15:55:19.507Z,41.08
2022-12-08T15:58:51.151Z,39.24
2022-12-08T16:03:49.453Z,37.34
2022-12-08T16:06:57.620Z,36.97
2022-12-08T16:09:06.277Z,36.58
2022-12-08T16:12:06.351Z,36.62
2022-12-08T16:17:20.584Z,36.09
2022-12-08T16:19:47.496Z,36.21
2022-12-08T16:25:14.636Z,36.21
2022-12-08T16:28:08.370Z,37.16
2022-12-08T16:30:31.965Z,38.39
2022-12-08T16:32:58.848Z,40.15
2022-12-08T16:35:25.742Z,40.81
2022-12-08T16:37:52.514Z,38.92
2022-12-08T16:40:19.277Z,37.73
2022-12-08T16:42:48.582Z,37.34
2022-12-08T16:45:15.378Z,37.03
2022-12-08T16:47:42.128Z,36.72
2022-12-08T16:50:08.961Z,36.78
2022-12-08T16:52:35.787Z,36.58
2022-12-08T16:55:02.844Z,36.24
2022-12-08T16:57:30.158Z,36.47
2022-12-08T16:59:56.955Z,36.42
2022-12-08T17:02:23.683Z,36.35
2022-12-08T17:04:50.440Z,36.13
2022-12-08T17:07:17.277Z,36.12
2022-12-08T17:09:44.294Z,37.27
2022-12-08T17:12:11.105Z,38.20
2022-12-08T17:14:37.882Z,39.37
2022-12-08T17:17:04.941Z,40.85
2022-12-08T17:19:31.835Z,39.02
2022-12-08T17:21:58.789Z,38.01
2022-12-08T17:24:28.872Z,37.50
2022-12-08T17:26:55.628Z,36.99
2022-12-08T17:29:22.487Z,36.71
2022-12-08T17:31:49.376Z,36.47
2022-12-08T17:34:16.233Z,36.48
2022-12-08T17:36:42.980Z,36.36
2022-12-08T17:39:13.438Z,36.39
2022-12-08T17:41:43.418Z,36.08
2022-12-08T17:44:10.261Z,36.16
2022-12-08T17:46:41.629Z,36.51
2022-12-08T17:49:09.537Z,37.95
2022-12-08T17:51:36.314Z,37.34
2022-12-08T17:54:03.038Z,40.80
2022-12-08T17:56:29.821Z,39.40
2022-12-08T17:58:56.645Z,38.31
2022-12-08T18:01:23.745Z,37.41
2022-12-08T18:03:50.640Z,37.06
2022-12-08T18:06:17.621Z,37.01
2022-12-08T18:08:44.444Z,36.78
2022-12-08T18:11:11.218Z,36.73
2022-12-08T18:13:37.960Z,36.56
2022-12-08T18:16:04.892Z,36.28
2022-12-08T18:18:31.629Z,36.35
2022-12-08T18:20:58.372Z,36.24
2022-12-08T18:23:25.112Z,36.12
2022-12-08T18:25:51.897Z,35.74
2022-12-08T18:28:18.661Z,36.03
2022-12-08T18:30:45.458Z,37.65
2022-12-08T18:33:12.246Z,38.17
2022-12-08T18:35:38.992Z,40.82
2022-12-08T18:38:05.730Z,40.19
2022-12-08T18:40:32.490Z,38.48
2022-12-08T18:42:59.238Z,37.47
2022-12-08T18:45:25.979Z,37.18
2022-12-08T18:47:52.754Z,36.83
2022-12-08T18:50:19.556Z,36.55
2022-12-08T18:52:46.343Z,36.33
2022-12-08T18:55:13.162Z,36.44
2022-12-08T18:57:39.919Z,36.14
2022-12-08T19:00:06.874Z,36.25
2022-12-08T19:02:33.934Z,36.10
2022-12-08T19:05:01.175Z,35.93
2022-12-08T19:07:27.985Z,36.09
2022-12-08T19:09:56.016Z,36.04
2022-12-08T19:12:22.765Z,37.84
2022-12-08T19:14:49.630Z,38.30
2022-12-08T19:17:16.437Z,42.47
2022-12-08T19:19:43.169Z,39.83
2022-12-08T19:22:10.103Z,38.14
2022-12-08T19:24:36.863Z,37.55
2022-12-08T19:27:03.616Z,37.16
2022-12-08T19:29:30.391Z,36.96
2022-12-08T19:31:57.306Z,36.47
2022-12-08T19:34:24.039Z,36.60
2022-12-08T19:36:50.859Z,36.23
2022-12-08T19:39:36.565Z,36.07
2022-12-08T19:42:21.988Z,35.75
2022-12-08T19:44:54.644Z,36.12
2022-12-08T19:47:21.517Z,35.77
2022-12-08T19:49:48.366Z,35.72
2022-12-08T19:52:15.289Z,36.72
2022-12-08T19:54:42.130Z,38.08
2022-12-08T19:57:09.615Z,40.73
2022-12-08T19:59:36.414Z,40.94
2022-12-08T20:02:03.300Z,38.77
2022-12-08T20:04:30.078Z,37.75
2022-12-08T20:06:56.922Z,37.32
2022-12-08T20:09:23.696Z,37.07
2022-12-08T20:11:54.678Z,36.56
2022-12-08T20:14:21.734Z,36.58
2022-12-08T20:16:48.659Z,36.54
2022-12-08T20:19:15.548Z,36.14
2022-12-08T20:21:42.403Z,36.26
2022-12-08T20:24:09.202Z,35.92
2022-12-08T20:26:35.951Z,35.80
2022-12-08T20:29:02.786Z,35.76
2022-12-08T20:31:29.656Z,35.63
2022-12-08T20:33:56.468Z,35.60
2022-12-08T20:36:23.636Z,37.91
2022-12-08T20:38:50.468Z,38.73
2022-12-08T20:41:17.371Z,42.52
2022-12-08T20:43:44.268Z,39.26
2022-12-08T20:46:11.022Z,37.98
2022-12-08T20:48:38.087Z,37.51
2022-12-08T20:51:05.048Z,36.91
2022-12-08T20:53:31.970Z,36.66
2022-12-08T20:55:58.920Z,36.35
2022-12-08T20:58:25.754Z,36.59
2022-12-08T21:00:52.844Z,36.06
2022-12-08T21:03:19.838Z,36.13
2022-12-08T21:05:46.849Z,35.77
2022-12-08T21:08:14.210Z,35.79
2022-12-08T21:10:44.028Z,35.86
2022-12-08T21:13:11.359Z,35.64
2022-12-08T21:15:38.201Z,35.78
2022-12-08T21:18:05.116Z,37.96
2022-12-08T21:20:32.127Z,38.14
2022-12-08T21:22:59.072Z,41.95
2022-12-08T21:25:25.808Z,38.89
2022-12-08T21:27:52.907Z,37.88
2022-12-08T21:30:19.752Z,37.47
2022-12-08T21:32:46.920Z,36.96
2022-12-08T21:35:13.840Z,36.61
2022-12-08T21:37:40.787Z,36.42
2022-12-08T21:40:08.235Z,36.28
2022-12-08T21:42:44.675Z,36.02
2022-12-08T21:45:11.874Z,36.00
2022-12-08T21:47:38.920Z,35.93
2022-12-08T21:50:06.409Z,35.96
2022-12-08T21:52:33.431Z,35.65
2022-12-08T21:55:00.305Z,35.76
2022-12-08T21:57:27.278Z,35.62
2022-12-08T21:59:54.389Z,37.03
2022-12-08T22:02:22.826Z,37.61
2022-12-08T22:04:50.260Z,39.80
2022-12-08T22:07:17.446Z,39.49
2022-12-08T22:09:44.281Z,37.88
2022-12-08T22:12:16.450Z,37.46
2022-12-08T22:14:43.224Z,36.97
2022-12-08T22:17:10.139Z,36.64
2022-12-08T22:19:37.459Z,36.38
2022-12-08T22:22:04.404Z,36.29
2022-12-08T22:24:31.360Z,36.06
2022-12-08T22:26:58.330Z,35.79
2022-12-08T22:29:25.321Z,35.70
2022-12-08T22:31:52.342Z,35.86
2022-12-08T22:34:19.219Z,35.65
2022-12-08T22:36:46.070Z,35.66
2022-12-08T22:39:12.912Z,36.23
2022-12-08T22:41:39.949Z,37.14
2022-12-08T22:44:06.963Z,37.61
2022-12-08T22:46:33.812Z,40.44
2022-12-08T22:49:00.693Z,38.88
2022-12-08T22:51:27.439Z,37.52
2022-12-08T22:53:54.339Z,37.04
2022-12-08T22:56:21.406Z,36.86
2022-12-08T22:58:48.400Z,36.51
2022-12-08T23:01:15.403Z,36.19
2022-12-08T23:03:42.422Z,36.03
2022-12-08T23:06:09.507Z,35.99
2022-12-08T23:08:36.627Z,35.74
2022-12-08T23:11:03.489Z,35.70
2022-12-08T23:13:30.338Z,35.57
2022-12-08T23:15:57.419Z,35.64
2022-12-08T23:18:24.405Z,35.57
2022-12-08T23:20:51.167Z,37.65
2022-12-08T23:23:17.898Z,38.10
2022-12-08T23:25:44.833Z,42.15
2022-12-08T23:28:11.763Z,40.11
2022-12-08T23:30:38.686Z,38.28
2022-12-08T23:33:05.649Z,37.29
2022-12-08T23:35:32.771Z,37.01
2022-12-08T23:37:59.547Z,36.53
2022-12-08T23:40:26.319Z,36.61
2022-12-08T23:42:53.069Z,36.32
2022-12-08T23:45:19.884Z,35.98
2022-12-08T23:47:46.674Z,36.04
2022-12-08T23:50:13.618Z,36.03
2022-12-08T23:52:40.636Z,35.76
2022-12-08T23:55:07.434Z,35.47
2022-12-08T23:57:34.169Z,35.54
